Time;durP1;ratioP1;P1;durP2;ratioP2;P2;SDS_P1;SDS_P2;PMS_P1;PMS_P2;Temp;Humidity;BMP_temperature;BMP_pressure;BME280_temperature;BME280_humidity;BME280_pressure;Samples;Min_cycle;Max_cycle;Signal;HPM_P1;HPM_P2
2021/03/24 00:01:21;;;;;;;18.20;14.55;;;8.20;99.90;;;;;;5051678;28;20549;-79
2021/03/24 00:03:47;;;;;;;21.63;16.20;;;8.20;99.90;;;;;;5052072;28;20195;-78
2021/03/24 00:06:14;;;;;;;17.77;15.30;;;8.20;99.90;;;;;;5051620;28;20168;-79
2021/03/24 00:08:41;;;;;;;18.55;13.80;;;8.20;99.90;;;;;;5050300;28;20564;-77
2021/03/24 00:11:08;;;;;;;22.52;16.95;;;8.20;99.90;;;;;;5034015;28;20264;-79
2021/03/24 00:13:34;;;;;;;23.17;17.02;;;8.10;99.90;;;;;;5051933;28;20230;-78
2021/03/24 00:16:02;;;;;;;19.83;16.40;;;8.10;99.90;;;;;;5051743;28;20684;-78
2021/03/24 00:18:29;;;;;;;22.65;15.93;;;8.10;99.90;;;;;;5049846;28;20260;-79
2021/03/24 00:20:58;;;;;;;18.13;16.05;;;8.00;99.90;;;;;;5059205;28;20186;-78
2021/03/24 00:23:24;;;;;;;18.50;14.60;;;8.00;99.90;;;;;;5052984;28;20192;-77
2021/03/24 00:25:51;;;;;;;19.80;15.25;;;8.00;99.90;;;;;;5054274;28;20226;-77
2021/03/24 00:28:17;;;;;;;15.60;13.38;;;8.00;99.90;;;;;;5035935;28;20292;-78
2021/03/24 00:30:46;;;;;;;17.20;14.18;;;8.00;99.90;;;;;;5055316;28;20249;-78
2021/03/24 00:33:21;;;;;;;18.40;15.52;;;7.90;99.90;;;;;;5052766;28;20193;-80
2021/03/24 00:35:50;;;;;;;20.48;15.63;;;7.90;99.90;;;;;;5053253;28;20157;-79
2021/03/24 00:38:18;;;;;;;20.23;16.92;;;7.90;99.90;;;;;;5035051;28;20180;-78
2021/03/24 00:40:47;;;;;;;15.85;13.88;;;7.90;99.90;;;;;;5050476;28;20165;-78
2021/03/24 00:43:13;;;;;;;18.50;13.73;;;7.90;99.90;;;;;;5051223;28;20660;-78
2021/03/24 00:45:40;;;;;;;16.97;14.20;;;7.90;99.90;;;;;;5033707;28;20215;-78
2021/03/24 00:48:13;;;;;;;19.90;15.70;;;7.90;99.90;;;;;;5033110;28;20583;-78
2021/03/24 00:50:39;;;;;;;17.02;14.63;;;7.90;99.90;;;;;;5033864;28;20524;-79
2021/03/24 00:53:08;;;;;;;17.75;15.02;;;7.90;99.90;;;;;;5017181;28;20203;-79
2021/03/24 00:55:34;;;;;;;18.55;15.52;;;7.90;99.90;;;;;;5051367;28;20173;-80
2021/03/24 00:58:00;;;;;;;17.20;14.00;;;7.90;99.90;;;;;;5016567;28;20172;-78
2021/03/24 01:00:31;;;;;;;21.80;16.90;;;7.80;99.90;;;;;;5034020;28;20583;-78
2021/03/24 01:02:57;;;;;;;18.20;14.63;;;7.80;99.90;;;;;;5051409;28;20566;-79
2021/03/24 01:05:24;;;;;;;16.33;13.87;;;7.80;99.90;;;;;;5033886;28;20177;-79
2021/03/24 01:07:51;;;;;;;15.95;14.10;;;7.80;99.90;;;;;;5032262;28;20587;-79
2021/03/24 01:10:29;;;;;;;21.02;14.85;;;7.80;99.90;;;;;;5017088;28;20169;-79
2021/03/24 01:12:55;;;;;;;18.30;14.60;;;7.80;99.90;;;;;;5050935;28;20181;-78
2021/03/24 01:15:22;;;;;;;20.73;16.23;;;7.80;99.90;;;;;;5050226;28;20166;-79
2021/03/24 01:17:49;;;;;;;23.08;16.52;;;7.70;99.90;;;;;;5033062;28;20227;-79
2021/03/24 01:20:16;;;;;;;19.45;14.40;;;7.70;99.90;;;;;;5051487;28;20824;-78
2021/03/24 01:22:42;;;;;;;16.42;13.38;;;7.70;99.90;;;;;;5054652;28;20172;-79
2021/03/24 01:25:08;;;;;;;17.50;14.40;;;7.70;99.90;;;;;;5054779;28;20172;-79
2021/03/24 01:27:34;;;;;;;19.17;13.63;;;7.70;99.90;;;;;;5054654;28;20177;-79
2021/03/24 01:30:00;;;;;;;19.27;14.82;;;7.70;99.90;;;;;;5037152;28;20177;-79
2021/03/24 01:32:28;;;;;;;20.10;15.07;;;7.70;99.90;;;;;;5036626;28;20173;-77
2021/03/24 01:34:54;;;;;;;18.23;14.53;;;7.60;99.90;;;;;;5053489;28;20710;-78
2021/03/24 01:37:20;;;;;;;17.90;13.53;;;7.60;99.90;;;;;;5054059;28;20571;-78
2021/03/24 01:39:46;;;;;;;16.90;14.15;;;7.60;99.90;;;;;;5054318;28;20646;-79
2021/03/24 01:42:12;;;;;;;19.67;15.40;;;7.60;99.90;;;;;;5054724;28;20253;-79
2021/03/24 01:45:28;;;;;;;16.38;12.70;;;7.60;99.90;;;;;;5036462;28;20614;-79
2021/03/24 01:47:56;;;;;;;21.05;15.60;;;7.50;99.90;;;;;;5053829;28;20169;-79
2021/03/24 01:50:44;;;;;;;15.80;13.70;;;7.50;99.90;;;;;;5054085;28;20260;-80
2021/03/24 01:53:12;;;;;;;23.83;14.95;;;7.50;99.90;;;;;;5036410;28;20192;-79
2021/03/24 01:55:38;;;;;;;21.80;14.03;;;7.50;99.90;;;;;;5054195;28;20533;-79
2021/03/24 01:58:04;;;;;;;17.40;14.30;;;7.50;99.90;;;;;;5053647;28;21034;-79
2021/03/24 02:00:51;;;;;;;17.88;14.90;;;7.40;99.90;;;;;;5036182;28;20567;-81
2021/03/24 02:03:22;;;;;;;18.58;15.13;;;7.40;99.90;;;;;;5054031;28;20192;-80
2021/03/24 02:05:48;;;;;;;21.58;16.25;;;7.40;99.90;;;;;;5036146;28;20188;-79
2021/03/24 02:08:29;;;;;;;18.73;14.82;;;7.40;99.90;;;;;;5053409;28;20165;-78
2021/03/24 02:11:07;;;;;;;18.52;13.73;;;7.30;99.90;;;;;;5035953;28;20169;-79
2021/03/24 02:13:44;;;;;;;21.98;15.95;;;7.30;99.90;;;;;;5035323;28;20267;-80
2021/03/24 02:16:20;;;;;;;22.58;17.52;;;7.30;99.90;;;;;;5036048;28;20173;-78
2021/03/24 02:18:48;;;;;;;25.77;17.35;;;7.30;99.90;;;;;;5037858;28;20172;-78
2021/03/24 02:25:57;;;;;;;24.08;12.73;;;7.20;99.90;;;;;;4929518;29;20216;-79
2021/03/24 02:28:26;;;;;;;20.00;14.50;;;7.20;99.90;;;;;;4907151;28;20191;-79
2021/03/24 02:31:12;;;;;;;17.75;14.15;;;7.20;99.90;;;;;;5021488;28;20227;-78
2021/03/24 02:33:46;;;;;;;20.80;15.25;;;7.20;99.90;;;;;;5053344;28;20201;-78
2021/03/24 02:36:18;;;;;;;20.88;15.95;;;7.10;99.90;;;;;;5053343;28;20169;-78
2021/03/24 02:38:46;;;;;;;19.55;14.80;;;7.10;99.90;;;;;;5053236;28;20165;-78
2021/03/24 02:41:14;;;;;;;21.27;14.93;;;7.10;99.90;;;;;;5053326;28;20161;-79
2021/03/24 02:43:41;;;;;;;23.98;17.40;;;7.10;99.90;;;;;;5053394;28;20235;-78
2021/03/24 02:46:09;;;;;;;22.25;16.17;;;7.10;99.90;;;;;;5035458;28;20169;-78
2021/03/24 02:48:38;;;;;;;23.55;17.35;;;7.00;99.90;;;;;;5052701;28;20169;-78
2021/03/24 02:51:08;;;;;;;20.75;16.15;;;7.00;99.90;;;;;;5036619;28;20654;-78
2021/03/24 02:53:38;;;;;;;20.50;16.42;;;7.00;99.90;;;;;;5035352;28;20688;-78
2021/03/24 02:56:12;;;;;;;22.77;16.48;;;7.00;99.90;;;;;;5115220;22;20221;-75
2021/03/24 02:58:49;;;;;;;22.55;17.13;;;7.00;99.90;;;;;;5095471;28;20179;-76
2021/03/24 03:01:54;;;;;;;21.92;16.85;;;7.00;99.90;;;;;;5074237;28;20266;-76
2021/03/24 03:04:45;;;;;;;24.08;15.68;;;7.00;99.90;;;;;;5101696;28;20174;-75
2021/03/24 03:07:22;;;;;;;18.60;15.65;;;7.00;99.90;;;;;;5083317;28;20214;-77
2021/03/24 03:09:51;;;;;;;20.25;14.63;;;7.00;99.90;;;;;;5075561;28;20671;-76
2021/03/24 03:12:48;;;;;;;19.60;15.02;;;6.90;99.90;;;;;;5092986;28;20698;-77
2021/03/24 03:15:37;;;;;;;22.67;15.90;;;6.90;99.90;;;;;;5051037;28;20226;-77
2021/03/24 03:18:08;;;;;;;22.08;15.15;;;6.90;99.90;;;;;;5081699;28;20183;-77
2021/03/24 03:20:40;;;;;;;24.38;17.00;;;6.90;99.90;;;;;;5092359;28;20697;-77
2021/03/24 03:23:11;;;;;;;28.80;20.33;;;6.80;99.90;;;;;;5092641;28;20562;-77
2021/03/24 03:25:42;;;;;;;21.58;16.83;;;6.80;99.90;;;;;;5057604;28;20662;-77
2021/03/24 03:28:14;;;;;;;21.50;18.23;;;6.80;99.90;;;;;;5092236;28;20183;-77
2021/03/24 03:30:46;;;;;;;23.10;18.05;;;6.70;99.90;;;;;;5092461;28;20163;-77
2021/03/24 03:33:13;;;;;;;19.10;16.83;;;6.70;99.90;;;;;;5092078;28;20164;-77
2021/03/24 03:35:40;;;;;;;20.63;16.95;;;6.70;99.90;;;;;;5091016;28;20180;-77
2021/03/24 03:38:15;;;;;;;22.50;17.65;;;6.70;99.90;;;;;;5073738;28;20168;-77
2021/03/24 03:40:44;;;;;;;21.55;17.17;;;6.70;99.90;;;;;;5070242;28;20530;-77
2021/03/24 03:43:15;;;;;;;25.20;19.13;;;6.70;99.90;;;;;;5090734;28;20179;-78
2021/03/24 03:45:43;;;;;;;28.77;20.60;;;6.60;99.90;;;;;;5093405;28;20183;-77
2021/03/24 03:48:18;;;;;;;26.75;19.52;;;6.60;99.90;;;;;;5091865;28;20172;-77
2021/03/24 03:50:47;;;;;;;23.55;17.90;;;6.60;99.90;;;;;;5090854;28;20669;-77
2021/03/24 03:53:32;;;;;;;22.92;17.15;;;6.60;99.90;;;;;;5090685;28;20168;-77
2021/03/24 03:55:57;;;;;;;27.00;19.63;;;6.60;99.90;;;;;;5091901;28;20202;-77
2021/03/24 03:58:40;;;;;;;20.70;17.33;;;6.60;99.90;;;;;;5091765;28;20167;-76
2021/03/24 04:01:12;;;;;;;21.73;16.80;;;6.60;99.90;;;;;;5090805;28;20661;-77
2021/03/24 04:03:48;;;;;;;19.60;14.48;;;6.60;99.90;;;;;;5090657;28;20178;-77
2021/03/24 04:06:23;;;;;;;22.50;17.23;;;6.60;99.90;;;;;;5091768;28;20241;-77
2021/03/24 04:08:50;;;;;;;26.92;16.75;;;6.60;99.90;;;;;;5091799;28;20225;-77
2021/03/24 04:11:22;;;;;;;17.73;13.43;;;6.60;99.90;;;;;;5090617;28;20171;-76
2021/03/24 04:13:56;;;;;;;19.08;15.65;;;6.60;99.90;;;;;;5090502;28;20200;-77
2021/03/24 04:16:29;;;;;;;21.33;17.30;;;6.50;99.90;;;;;;5091296;28;20198;-76
2021/03/24 04:19:03;;;;;;;24.98;18.88;;;6.50;99.90;;;;;;5091673;28;20179;-77
2021/03/24 04:21:32;;;;;;;21.13;17.02;;;6.50;99.90;;;;;;5091626;28;20167;-77
2021/03/24 04:24:26;;;;;;;25.02;18.65;;;6.50;99.90;;;;;;5054316;28;20172;-77
2021/03/24 04:26:57;;;;;;;20.83;17.38;;;6.50;99.90;;;;;;5069226;28;20199;-77
2021/03/24 04:29:51;;;;;;;18.88;15.50;;;6.40;99.90;;;;;;5071210;28;20161;-77
2021/03/24 04:32:17;;;;;;;24.33;18.40;;;6.40;99.90;;;;;;5091601;28;20163;-76
2021/03/24 04:34:43;;;;;;;29.03;20.60;;;6.40;99.90;;;;;;5091343;28;20240;-76
2021/03/24 04:37:33;;;;;;;21.70;16.25;;;6.40;99.90;;;;;;5089978;28;21157;-76
2021/03/24 04:40:13;;;;;;;21.67;17.98;;;6.40;99.90;;;;;;5090337;28;20192;-77
2021/03/24 04:42:44;;;;;;;24.45;17.25;;;6.40;99.90;;;;;;5091313;28;20209;-77
2021/03/24 04:45:38;;;;;;;19.90;15.82;;;6.30;99.90;;;;;;5073289;28;20203;-75
2021/03/24 04:48:21;;;;;;;22.65;16.77;;;6.30;99.90;;;;;;5091085;28;20217;-76
2021/03/24 04:51:00;;;;;;;24.02;14.85;;;6.30;99.90;;;;;;5056598;28;20183;-76
2021/03/24 04:53:31;;;;;;;20.55;14.88;;;6.30;99.90;;;;;;5091291;28;20242;-77
2021/03/24 04:55:58;;;;;;;19.42;14.95;;;6.30;99.90;;;;;;5091991;28;20195;-76
2021/03/24 04:58:37;;;;;;;21.45;16.63;;;6.30;99.90;;;;;;5076587;28;20529;-76
2021/03/24 05:01:31;;;;;;;18.65;15.00;;;6.30;99.90;;;;;;5078413;28;20264;-76
2021/03/24 05:04:08;;;;;;;16.25;14.40;;;6.30;99.90;;;;;;5077011;28;20174;-77
2021/03/24 05:06:57;;;;;;;;;;;;;;;;;;;;;
2021/03/24 05:09:42;;;;;;;18.23;16.30;;;6.20;99.90;;;;;;5075809;28;20180;-77
2021/03/24 05:12:24;;;;;;;21.15;16.35;;;6.20;99.90;;;;;;5095087;28;20163;-77
2021/03/24 05:15:02;;;;;;;18.45;14.85;;;6.20;99.90;;;;;;5094965;28;20231;-77
2021/03/24 05:17:29;;;;;;;20.45;15.60;;;6.20;99.90;;;;;;5059681;28;20635;-76
2021/03/24 05:20:06;;;;;;;19.90;16.20;;;6.20;99.90;;;;;;5077240;28;20171;-76
2021/03/24 05:22:43;;;;;;;23.63;18.60;;;6.20;99.90;;;;;;5094818;28;20627;-76
2021/03/24 05:25:33;;;;;;;19.13;15.40;;;6.10;99.90;;;;;;5076390;28;20308;-76
2021/03/24 05:28:20;;;;;;;17.55;15.18;;;6.10;99.90;;;;;;5076221;28;20202;-77
2021/03/24 05:31:25;;;;;;;19.10;15.48;;;6.10;99.90;;;;;;5059727;28;20513;-76
2021/03/24 05:33:59;;;;;;;21.77;16.27;;;6.10;99.90;;;;;;5094268;28;20307;-77
2021/03/24 05:36:39;;;;;;;23.50;15.60;;;6.10;99.90;;;;;;5094394;28;20183;-76
2021/03/24 05:39:12;;;;;;;25.02;17.83;;;6.10;99.90;;;;;;5094389;28;20276;-76
2021/03/24 05:42:13;;;;;;;18.45;13.30;;;6.10;99.90;;;;;;5094464;28;20316;-77
2021/03/24 05:45:06;;;;;;;15.88;13.30;;;6.10;99.90;;;;;;5076508;28;20631;-77
2021/03/24 05:47:51;;;;;;;17.17;14.40;;;6.10;99.90;;;;;;5075620;28;20626;-77
2021/03/24 05:50:34;;;;;;;22.95;16.27;;;6.20;99.90;;;;;;5076042;28;20206;-76
2021/03/24 05:53:43;;;;;;;19.52;15.13;;;6.20;99.90;;;;;;5075928;28;20178;-76
2021/03/24 05:56:24;;;;;;;24.10;17.08;;;6.20;99.90;;;;;;5011458;28;20242;-76
2021/03/24 05:59:10;;;;;;;19.02;15.98;;;6.20;99.90;;;;;;5089982;28;20207;-74
2021/03/24 06:01:42;;;;;;;22.50;14.50;;;6.20;99.90;;;;;;5075730;28;20508;-76
2021/03/24 06:04:31;;;;;;;22.23;15.77;;;6.30;99.90;;;;;;5075694;28;20168;-75
2021/03/24 06:07:21;;;;;;;21.17;17.50;;;6.30;99.90;;;;;;5075162;28;20183;-76
2021/03/24 06:10:08;;;;;;;16.73;13.05;;;6.30;99.90;;;;;;5059516;28;20232;-75
2021/03/24 06:13:07;;;;;;;20.05;15.43;;;6.40;99.90;;;;;;5093801;28;20179;-75
2021/03/24 06:16:00;;;;;;;20.08;15.27;;;6.50;99.90;;;;;;5075715;28;20230;-74
2021/03/24 06:18:35;;;;;;;24.98;16.23;;;6.50;99.90;;;;;;5092321;28;20175;-74
2021/03/24 06:21:18;;;;;;;20.23;16.13;;;6.60;99.90;;;;;;5093604;28;20167;-75
2021/03/24 06:24:07;;;;;;;24.10;17.60;;;6.60;99.90;;;;;;5093633;28;20207;-75
2021/03/24 06:26:38;;;;;;;25.02;18.63;;;6.70;99.90;;;;;;5058235;28;20202;-76
2021/03/24 06:29:26;;;;;;;23.95;14.48;;;6.70;99.90;;;;;;5092280;28;20194;-77
2021/03/24 06:32:20;;;;;;;23.77;17.02;;;6.80;99.90;;;;;;5075487;28;20182;-76
2021/03/24 06:35:13;;;;;;;21.73;14.75;;;6.80;99.90;;;;;;5074530;28;20192;-76
2021/03/24 06:38:01;;;;;;;19.92;16.15;;;6.90;99.90;;;;;;5093084;28;20217;-76
2021/03/24 06:40:54;;;;;;;25.08;16.58;;;7.00;99.90;;;;;;5092910;28;20164;-75
2021/03/24 06:43:54;;;;;;;18.70;15.02;;;7.10;99.90;;;;;;5092869;28;20160;-76
2021/03/24 06:46:29;;;;;;;22.75;18.05;;;7.10;99.90;;;;;;5023169;28;20196;-74
2021/03/24 06:49:30;;;;;;;23.58;17.23;;;7.20;99.90;;;;;;5093048;28;20202;-75
2021/03/24 06:52:20;;;;;;;23.42;17.38;;;7.30;99.90;;;;;;5075317;28;20570;-76
2021/03/24 06:55:14;;;;;;;22.55;16.88;;;7.40;99.90;;;;;;5074392;28;20276;-75
2021/03/24 06:57:58;;;;;;;18.50;15.25;;;7.50;99.90;;;;;;5092645;28;20186;-74
2021/03/24 07:00:51;;;;;;;21.90;16.60;;;7.70;99.90;;;;;;5074298;28;20159;-75
2021/03/24 07:03:37;;;;;;;22.50;16.30;;;7.80;99.90;;;;;;5074762;28;20555;-75
2021/03/24 07:06:23;;;;;;;21.25;16.10;;;7.90;99.90;;;;;;5092686;28;20241;-75
2021/03/24 07:08:54;;;;;;;20.42;17.15;;;8.00;99.90;;;;;;5092781;28;20178;-75
2021/03/24 07:11:38;;;;;;;18.70;16.08;;;8.10;99.90;;;;;;5092508;28;20631;-76
2021/03/24 07:14:27;;;;;;;21.15;16.90;;;8.20;99.90;;;;;;5092379;28;20226;-74
2021/03/24 07:17:46;;;;;;;20.20;15.25;;;8.30;99.90;;;;;;5091882;28;20273;-75
2021/03/24 07:20:33;;;;;;;18.73;16.27;;;8.30;99.90;;;;;;5012971;28;20216;-75
2021/03/24 07:23:18;;;;;;;18.08;14.40;;;8.50;99.90;;;;;;5070215;28;20225;-76
2021/03/24 07:25:54;;;;;;;22.00;15.57;;;8.90;99.90;;;;;;5074132;28;20202;-76
2021/03/24 07:28:40;;;;;;;24.75;19.65;;;9.40;99.90;;;;;;5074633;28;20182;-82
2021/03/24 07:31:46;;;;;;;20.55;15.63;;;10.10;99.90;;;;;;5074449;28;20198;-75
2021/03/24 07:34:30;;;;;;;22.70;15.57;;;10.90;99.90;;;;;;5074116;28;20278;-75
2021/03/24 07:37:31;;;;;;;15.93;14.00;;;11.90;99.90;;;;;;5073831;28;20260;-76
2021/03/24 07:40:10;;;;;;;16.90;15.03;;;12.90;99.90;;;;;;5029651;28;20182;-74
2021/03/24 07:42:48;;;;;;;19.20;14.17;;;14.00;99.90;;;;;;5076679;28;20680;-75
2021/03/24 07:45:50;;;;;;;14.20;12.70;;;15.10;99.90;;;;;;5073686;28;20617;-74
2021/03/24 07:48:59;;;;;;;18.03;14.83;;;16.10;99.90;;;;;;5073613;28;20565;-75
2021/03/24 07:52:04;;;;;;;20.37;14.63;;;17.10;99.90;;;;;;5091900;28;21104;-73
2021/03/24 07:54:58;;;;;;;17.10;14.00;;;17.50;99.90;;;;;;5073481;28;20678;-74
2021/03/24 07:58:00;;;;;;;15.80;14.20;;;18.00;99.90;;;;;;5072701;28;20597;-75
2021/03/24 08:00:33;;;;;;;18.87;14.50;;;18.50;97.10;;;;;;5091915;28;20560;-74
2021/03/24 08:03:40;;;;;;;18.87;14.67;;;18.90;99.90;;;;;;5090788;28;20653;-75
2021/03/24 08:06:33;;;;;;;14.67;13.10;;;19.30;99.90;;;;;;5033915;28;20608;-74
2021/03/24 08:09:20;;;;;;;16.80;14.40;;;19.40;96.70;;;;;;5073714;28;20550;-74
2021/03/24 08:12:09;;;;;;;16.30;14.50;;;19.50;95.10;;;;;;5057010;28;20661;-75
2021/03/24 08:15:28;;;;;;;15.23;13.63;;;19.50;94.20;;;;;;5059483;28;20633;-73
2021/03/24 08:18:11;;;;;;;17.13;15.13;;;19.50;91.50;;;;;;5029740;28;20580;-79
2021/03/24 08:21:04;;;;;;;17.20;14.90;;;19.70;93.80;;;;;;5089007;28;20618;-81
2021/03/24 08:23:45;;;;;;;17.37;13.73;;;19.90;93.30;;;;;;5074935;28;20573;-83
2021/03/24 08:26:20;;;;;;;15.43;13.93;;;20.30;92.30;;;;;;5097639;28;20615;-80
2021/03/24 08:29:09;;;;;;;15.37;13.77;;;20.30;91.80;;;;;;5059207;28;20608;-80
2021/03/24 08:32:12;;;;;;;16.23;14.40;;;20.40;91.50;;;;;;5098392;28;20557;-80
2021/03/24 08:35:35;;;;;;;15.23;13.63;;;20.80;91.60;;;;;;5077569;28;20679;-81
2021/03/24 08:38:38;;;;;;;17.20;15.40;;;21.70;91.90;;;;;;5032992;28;21311;-79
2021/03/24 08:41:52;;;;;;;15.40;13.63;;;21.90;75.70;;;;;;5033741;28;20631;-80
2021/03/24 08:44:39;;;;;;;12.90;11.50;;;21.70;80.70;;;;;;4999598;28;20581;-82
2021/03/24 08:47:13;;;;;;;14.00;12.50;;;21.70;87.70;;;;;;5013169;28;20577;-80
2021/03/24 08:49:46;;;;;;;15.17;13.73;;;22.30;85.80;;;;;;5073672;28;20569;-81
2021/03/24 08:52:33;;;;;;;18.80;16.60;;;22.50;87.90;;;;;;5094385;28;20572;-80
2021/03/24 08:55:25;;;;;;;15.27;13.63;;;22.70;81.20;;;;;;5093790;28;21172;-80
2021/03/24 08:58:17;;;;;;;17.90;16.17;;;22.90;83.00;;;;;;5094850;28;20906;-81
2021/03/24 09:01:04;;;;;;;14.93;13.37;;;23.20;81.50;;;;;;5095279;28;21251;-80
2021/03/24 09:04:21;;;;;;;15.17;13.53;;;23.50;81.70;;;;;;5096866;28;20585;-80
2021/03/24 09:07:25;;;;;;;16.53;13.97;;;24.00;77.00;;;;;;5035911;28;20632;-81
2021/03/24 09:10:10;;;;;;;16.20;14.50;;;23.90;74.40;;;;;;5032677;28;21279;-81
2021/03/24 09:12:43;;;;;;;18.67;16.77;;;24.20;76.30;;;;;;5091663;28;21204;-81
2021/03/24 09:15:32;;;;;;;17.50;15.50;;;24.60;75.80;;;;;;5095214;28;21029;-81
2021/03/24 09:18:21;;;;;;;19.37;14.33;;;24.80;73.30;;;;;;5095069;28;20917;-80
2021/03/24 09:21:02;;;;;;;18.50;15.17;;;25.40;74.60;;;;;;5099263;28;20626;-82
2021/03/24 09:23:40;;;;;;;16.77;14.50;;;25.80;69.70;;;;;;5094389;28;20584;-81
2021/03/24 09:26:53;;;;;;;15.33;13.73;;;25.80;65.10;;;;;;5094617;28;20585;-79
2021/03/24 09:29:52;;;;;;;17.23;15.17;;;25.70;68.30;;;;;;5095037;28;20549;-82
2021/03/24 09:32:45;;;;;;;15.90;14.30;;;25.60;67.60;;;;;;5095033;28;20553;-81
2021/03/24 09:35:28;;;;;;;15.20;13.60;;;25.60;64.70;;;;;;5094790;28;20609;-80
2021/03/24 09:38:07;;;;;;;16.60;15.00;;;25.50;64.40;;;;;;5093427;28;20570;-80
2021/03/24 09:40:40;;;;;;;18.43;14.97;;;25.60;64.40;;;;;;5094945;28;20561;-80
2021/03/24 09:43:22;;;;;;;17.60;14.90;;;26.00;64.60;;;;;;5076110;28;20565;-79
2021/03/24 09:46:21;;;;;;;15.73;14.27;;;26.10;60.30;;;;;;5094859;28;20598;-80
2021/03/24 09:48:55;;;;;;;21.73;16.80;;;26.30;56.60;;;;;;5095127;28;20580;-81
2021/03/24 09:51:30;;;;;;;17.37;15.60;;;26.40;60.00;;;;;;5095002;28;20934;-80
2021/03/24 09:54:25;;;;;;;19.60;17.50;;;26.60;59.70;;;;;;5094781;28;20613;-80
2021/03/24 09:57:16;;;;;;;17.90;15.97;;;26.60;57.50;;;;;;5080647;28;20625;-80
2021/03/24 09:59:48;;;;;;;27.40;18.77;;;26.90;58.80;;;;;;5093223;28;21143;-81
2021/03/24 10:02:35;;;;;;;17.37;15.57;;;27.40;59.70;;;;;;5094606;28;21086;-79
2021/03/24 10:05:07;;;;;;;15.97;14.37;;;28.20;60.10;;;;;;5093712;28;20593;-81
2021/03/24 10:07:41;;;;;;;18.83;16.87;;;28.70;59.60;;;;;;5075785;28;20570;-80
2021/03/24 10:10:24;;;;;;;16.07;14.57;;;29.30;57.60;;;;;;5095212;28;20951;-80
2021/03/24 10:13:15;;;;;;;21.07;16.80;;;29.00;56.20;;;;;;5093320;28;21180;-79
2021/03/24 10:15:44;;;;;;;16.40;14.70;;;28.60;53.60;;;;;;5093012;28;20647;-80
2021/03/24 10:18:25;;;;;;;16.87;15.17;;;28.60;55.40;;;;;;5092363;28;20677;-79
2021/03/24 10:20:57;;;;;;;16.80;14.77;;;28.50;53.80;;;;;;5095640;28;20569;-76
2021/03/24 10:23:47;;;;;;;17.80;15.60;;;28.30;53.10;;;;;;5093844;28;20928;-81
2021/03/24 10:26:21;;;;;;;22.90;18.20;;;28.00;52.40;;;;;;5093575;28;20622;-80
2021/03/24 10:28:49;;;;;;;16.80;15.10;;;27.90;51.40;;;;;;5075558;28;20615;-81
2021/03/24 10:31:26;;;;;;;15.87;14.00;;;27.90;52.30;;;;;;5093728;28;20586;-81
2021/03/24 10:34:08;;;;;;;17.80;15.97;;;28.30;52.90;;;;;;5077014;28;20948;-81
2021/03/24 10:36:44;;;;;;;25.23;16.43;;;28.00;50.90;;;;;;5092664;28;20619;-81
2021/03/24 10:39:28;;;;;;;19.87;17.40;;;27.70;50.40;;;;;;5093377;28;20596;-82
2021/03/24 10:42:39;;;;;;;22.60;18.87;;;27.20;49.70;;;;;;5078492;28;20573;-81
2021/03/24 10:45:31;;;;;;;17.97;16.10;;;26.70;50.00;;;;;;5093250;28;20702;-81
2021/03/24 10:48:25;;;;;;;18.20;14.40;;;26.50;51.00;;;;;;5075025;28;20593;-83
2021/03/24 10:51:17;;;;;;;21.97;19.33;;;26.60;50.70;;;;;;5093402;28;20554;-84
2021/03/24 10:53:46;;;;;;;20.20;16.93;;;26.40;48.20;;;;;;5092232;28;20901;-84
2021/03/24 10:56:27;;;;;;;25.00;18.83;;;26.30;51.40;;;;;;5092909;28;20605;-83
2021/03/24 10:59:20;;;;;;;18.20;15.57;;;26.40;51.20;;;;;;5093237;28;20933;-83
2021/03/24 11:01:54;;;;;;;21.00;17.20;;;26.40;51.60;;;;;;5093312;28;20618;-84
2021/03/24 11:04:55;;;;;;;21.60;18.20;;;26.50;51.20;;;;;;5075526;28;20617;-85
2021/03/24 11:07:44;;;;;;;25.10;20.20;;;26.50;51.20;;;;;;5091503;28;20634;-85
2021/03/24 11:10:30;;;;;;;21.70;18.27;;;26.50;50.00;;;;;;5093071;28;20913;-85
2021/03/24 11:13:03;;;;;;;24.03;17.53;;;26.00;49.20;;;;;;5077795;28;20566;-82
2021/03/24 11:15:38;;;;;;;20.43;16.37;;;25.90;49.90;;;;;;5092673;28;20590;-83
2021/03/24 11:18:14;;;;;;;19.50;16.90;;;25.80;49.90;;;;;;5084810;28;20643;-82
2021/03/24 11:20:53;;;;;;;22.43;16.90;;;25.80;50.80;;;;;;5091539;28;20631;-82
2021/03/24 11:23:34;;;;;;;21.77;18.77;;;26.00;50.60;;;;;;5092400;28;20569;-85
2021/03/24 11:26:16;;;;;;;22.43;16.80;;;26.20;50.50;;;;;;5090989;28;20656;-82
2021/03/24 11:28:44;;;;;;;25.07;19.97;;;26.30;50.70;;;;;;5093577;28;20558;-83
2021/03/24 11:31:16;;;;;;;20.97;18.43;;;26.30;49.90;;;;;;5097702;28;20922;-81
2021/03/24 11:33:48;;;;;;;20.40;17.27;;;26.10;48.80;;;;;;5074161;28;21108;-82
2021/03/24 11:36:40;;;;;;;20.10;17.73;;;26.00;48.90;;;;;;5107931;28;20703;-81
2021/03/24 11:39:47;;;;;;;19.97;17.27;;;25.80;49.00;;;;;;5112487;28;20569;-82
2021/03/24 11:42:19;;;;;;;19.80;17.70;;;25.80;49.70;;;;;;5110862;28;20630;-81
2021/03/24 11:44:48;;;;;;;21.90;17.20;;;26.00;50.30;;;;;;5113662;28;20619;-82
2021/03/24 11:47:41;;;;;;;21.40;18.80;;;26.10;49.60;;;;;;5107637;28;20633;-83
2021/03/24 11:50:26;;;;;;;23.93;20.20;;;26.00;49.30;;;;;;5084743;28;21163;-83
2021/03/24 11:53:13;;;;;;;23.13;20.60;;;25.60;47.60;;;;;;5095790;28;20633;-82
2021/03/24 11:55:54;;;;;;;31.10;22.63;;;25.30;48.00;;;;;;5115341;28;20688;-82
2021/03/24 11:58:32;;;;;;;22.57;19.60;;;24.80;46.90;;;;;;5114173;28;20728;-82
2021/03/24 12:00:58;;;;;;;22.57;17.27;;;24.70;48.00;;;;;;5114116;28;20585;-83
2021/03/24 12:03:40;;;;;;;22.23;16.93;;;24.60;48.60;;;;;;5114586;28;20593;-83
2021/03/24 12:06:26;;;;;;;22.17;18.40;;;24.60;49.00;;;;;;5097850;28;20199;-83
2021/03/24 12:09:11;;;;;;;20.93;16.67;;;24.80;49.40;;;;;;5109210;28;20683;-83
2021/03/24 12:11:41;;;;;;;19.57;14.07;;;24.90;48.70;;;;;;5098393;28;20550;-83
2021/03/24 12:14:12;;;;;;;19.97;15.83;;;24.80;49.00;;;;;;5096157;28;20577;-82
2021/03/24 12:16:47;;;;;;;16.50;12.87;;;24.70;48.30;;;;;;5095310;28;21214;-83
2021/03/24 12:19:34;;;;;;;20.70;15.60;;;24.70;48.90;;;;;;5096441;28;20660;-83
2021/03/24 12:22:26;;;;;;;18.37;16.23;;;24.70;49.10;;;;;;5097614;28;20931;-83
2021/03/24 12:25:03;;;;;;;17.23;13.47;;;24.90;49.40;;;;;;5095686;28;20683;-82
2021/03/24 12:27:33;;;;;;;18.17;13.53;;;25.00;49.20;;;;;;5100778;28;20660;-83
2021/03/24 12:30:02;;;;;;;18.60;14.17;;;25.20;49.40;;;;;;5100008;28;20561;-83
2021/03/24 12:32:31;;;;;;;20.03;14.67;;;25.30;49.30;;;;;;5080582;28;20918;-83
2021/03/24 12:34:57;;;;;;;18.00;13.70;;;25.40;49.30;;;;;;5079701;28;20787;-83
2021/03/24 12:37:51;;;;;;;18.77;14.83;;;25.50;49.20;;;;;;5079493;28;21088;-83
2021/03/24 12:40:24;;;;;;;16.17;12.77;;;25.40;47.50;;;;;;5096952;28;21007;-84
2021/03/24 12:42:52;;;;;;;17.40;13.53;;;25.30;48.50;;;;;;5096609;28;20673;-84
2021/03/24 12:45:50;;;;;;;15.27;13.63;;;25.30;48.70;;;;;;5096399;28;21192;-84
2021/03/24 12:48:35;;;;;;;15.83;12.17;;;25.30;48.70;;;;;;5085396;28;20586;-83
2021/03/24 12:51:14;;;;;;;21.80;15.47;;;25.30;48.20;;;;;;5101775;28;20562;-83
2021/03/24 12:53:45;;;;;;;17.40;14.30;;;25.20;47.70;;;;;;5101103;28;20557;-83
2021/03/24 12:56:32;;;;;;;18.07;14.40;;;25.10;48.10;;;;;;5103659;28;20621;-81
2021/03/24 12:59:12;;;;;;;17.87;14.73;;;25.00;47.70;;;;;;5108774;28;20583;-80
2021/03/24 13:01:52;;;;;;;20.27;15.33;;;24.80;47.40;;;;;;5110457;28;20638;-81
2021/03/24 13:04:48;;;;;;;16.03;13.67;;;24.50;47.10;;;;;;5107085;28;20639;-81
2021/03/24 13:07:42;;;;;;;19.43;16.73;;;24.30;47.00;;;;;;5103283;28;20562;-81
2021/03/24 13:10:26;;;;;;;20.33;16.37;;;23.80;45.10;;;;;;5107844;28;20602;-80
2021/03/24 13:13:10;;;;;;;19.60;12.83;;;23.40;46.20;;;;;;5111035;28;20566;-81
2021/03/24 13:15:59;;;;;;;16.60;13.20;;;23.20;46.40;;;;;;5113359;28;20604;-80
2021/03/24 13:18:28;;;;;;;19.10;13.90;;;23.00;46.70;;;;;;5118226;28;20566;-82
2021/03/24 13:21:15;;;;;;;21.60;14.53;;;22.70;46.30;;;;;;5119817;28;20579;-81
2021/03/24 13:24:12;;;;;;;17.83;15.53;;;22.40;46.00;;;;;;5103578;28;20696;-81
2021/03/24 13:26:44;;;;;;;18.93;14.20;;;22.10;46.20;;;;;;5075932;28;20624;-82
2021/03/24 13:29:31;;;;;;;17.60;13.93;;;21.70;45.90;;;;;;5135704;28;20572;-80
2021/03/24 13:32:09;;;;;;;16.47;12.37;;;21.40;46.30;;;;;;5118653;28;20580;-83
2021/03/24 13:34:53;;;;;;;13.53;11.20;;;21.20;46.50;;;;;;5090650;28;20612;-81
2021/03/24 13:37:26;;;;;;;15.13;9.67;;;21.00;46.80;;;;;;5116941;28;20613;-81
2021/03/24 13:40:19;;;;;;;13.03;9.87;;;20.90;46.80;;;;;;5119216;28;20562;-81
2021/03/24 13:42:53;;;;;;;11.30;9.60;;;20.70;47.00;;;;;;5121031;28;20546;-82
2021/03/24 13:45:56;;;;;;;13.17;10.37;;;20.60;47.20;;;;;;5103231;28;20653;-81